Northwest Arkansas Regional Airport Fayetteville,Springdale, US
ICAO: KXNA
IATA: XNA
Category: Medium
Scheduled Services: No

Elevation: 1287 ft
TransAlt. 18000 ft.

Airport Communications:
RAZORBACK APP/DEP:121
ASOS:119.425
CTAF:127.1
GND:121.9
JONESBORO RDO:122.55
TWR:127.1
UNICOM:122.95

KXNA Zoom In..

If you have problems with the map follow the link
https://www.worldairports.se/pages/airport.php?
ICAO=KXNA

Runways:

(A) RW 16 length 8800 ft width 150 ft
ILS 110.55 / hdg 156

(B) RW 17 length 8800 ft width 150 ft
ILS 111.75 / hdg 156

(C) RW 34 length 8800 ft width 150 ft
ILS 110.55 / hdg 336

(D) RW 35 length 8800 ft width 150 ft
ILS 111.75 / hdg 336

Location; KXNA
Day. 22 / Time. 12.53 Zulu
* Altimeter: 30.14
* Temperature: -01° c. -30.2°f.
* Wind from: 160° Speed 09 kn.
Dewpoint: -03° c.
Visibility: 10 Statute Miles.
Clouds: Few 3400 ft.
Clouds: Broken 4500 ft.
Clouds: Overcast 5500 ft.

KXNA 221253Z 16009KT 10SM FEW034 BKN045 OVC055 M01/M03 A3014 RMK AO2 SNE43 SLP215 P0002 T10111028


Wind From 160°
Speed 09 kn.

 
 
jpsmedia worldairports.se 2020   terms of use